KABY/ABY METAR and TAF weather

Enter ICAO airport designator
Station Type Date Time Source
KABY METAR 2021/07/29 18:53 UTC NOAA

KABY 291853Z 35004KT 10SM SCT046 BKN055 BKN070 37/24 A3001 RMK AO2 SLP161 T03670244


Station Type Date Time Source
KABY Decoded METAR 2021/07/29 18:53 UTC NOAA

ALBANY SOUTHWEST GEORGIA, GA, United States (KABY) 31-32N 084-12W 58M
Jul 29, 2021 - 02:53 PM EDT / 2021.07.29 1853 UTC
Wind: from the N (350 degrees) at 5 MPH (4 KT):0
Visibility: 10 mile(s):0
Sky conditions: mostly cloudy
Temperature: 98.1 F (36.7 C)
Heat index: 112.1 F (44.5 C):1
Dew Point: 75.9 F (24.4 C)
Relative Humidity: 49%
Pressure (altimeter): 30.01 in. Hg (1016 hPa)
ob: KABY 291853Z 35004KT 10SM SCT046 BKN055 BKN070 37/24 A3001 RMK AO2 SLP161 T03670244
cycle: 19

Station Type Date Time Source
KABY TAF 2021/07/29 18:22 UTC NOAA

TAF KABY 291720Z 2918/3018 23005KT P6SM SCT050 SCT250

Example: see airport list